Eslamshahr, Iran
Current Conditions -  °F | °C
As of 1:00 PM on Monday 24 Nov 2014 (Local Time) from OIIE Reporting Station
Broken Clouds Broken Clouds  
Wind Chill: 59°   Ceiling: 20000
Heat Index: 59°   Visibility: 6mi
Dew Point: 28°   Wind: 7mph
Humidity: 31%   Direction: 310°NW
Pressure: 30.06"   Gusts: NA
Location:  35.54°N, 51.2°E
Report Text: OIIE 240900Z 31006KT 9999 FEW040 BKN200 15/M02 Q1018 NOSIG
Loading
Personal Weather Stations






























Interactive Weather Map New forecast layout! Learn more

10-Day Weather Forecast

Advertisements
Track Severe Weather on mobile